Listerhav — ZDKC7 — position and weather

sailwx.info

Track history (hours):
 
Tides and Currents Weather Stations Pressure Air Temp Water Temp Dewpoint Dewpoint Depression Visibility Wind Speed Wind Dir Waves Ship Positions

Listerhav

Last reported at 2014-Sep-29 07:33 UTC. Time now 2014-Oct-01 00:07 UTC.
Position N 56°18' E 012°04'.

Length 88 m; draft 5.8 m.

Type: Cargo ship. MMSI: 236591000.

Date/timePositionNaut miles runAvg speedWind from/ knotsBaromVisibWave heightAir tempDewpointWater temp
2014-Sep-29 07:33N 56°18' E 012°04'8 8.4
2014-Sep-29 06:33N 56°14' E 012°16'8 8.1
2014-Sep-29 05:33N 56°09' E 012°29'8 7.9
2014-Sep-29 04:33N 56°04' E 012°39'7 7.4
2014-Sep-29 03:33N 55°57' E 012°43'8 7.9
2014-Sep-29 02:33N 55°49' E 012°43'8 8.3
2014-Sep-29 01:34N 55°41' E 012°41'8 7.6
2014-Sep-29 00:33N 55°33' E 012°42'8 8.0
2014-Sep-28 23:34N 55°25' E 012°42'8 7.6
2014-Sep-28 22:31N 55°18' E 012°46'8 8.5
2014-Sep-28 21:33N 55°17' E 013°01'9 8.2
2014-Sep-28 20:30N 55°15' E 013°16'8 8.3
2014-Sep-28 19:33N 55°15' E 013°30'8 8.3
2014-Sep-28 18:33N 55°14' E 013°44'8 8.2
2014-Sep-28 17:33N 55°14' E 013°59'8 8.1
2014-Sep-28 16:33N 55°14' E 014°13'8 7.6
2014-Sep-28 15:33N 55°19' E 014°23'8 8.3
2014-Sep-28 14:33N 55°25' E 014°32'8 8.0
2014-Sep-28 13:33N 55°29' E 014°44'8 8.1
2014-Sep-28 12:33N 55°33' E 014°57'8 7.9
2014-Sep-28 11:32N 55°38' E 015°09'18 8.2
2014-Sep-28 09:18N 55°47' E 015°37'7 8.2
2014-Sep-28 08:26N 55°50' E 015°48'  
2014-Sep-24 05:26N 55°34' E 015°14'8 9.6
2014-Sep-24 04:33N 55°30' E 015°00'10 9.7
2014-Sep-24 03:33N 55°25' E 014°46'10 9.6
2014-Sep-24 02:34N 55°19' E 014°33'9 9.5
2014-Sep-24 01:34N 55°11' E 014°22'9 9.4
2014-Sep-24 00:33N 55°04' E 014°12'9 9.2
2014-Sep-23 23:33N 54°60' E 013°58'9 9.5
2014-Sep-23 22:34N 54°57' E 013°42'9 9.3
2014-Sep-23 21:33N 54°53' E 013°27'10 9.4
2014-Sep-23 20:30N 54°50' E 013°11'10 9.4
2014-Sep-23 19:28N 54°45' E 012°56'9 9.5
2014-Sep-23 18:33N 54°40' E 012°44'10 9.7
2014-Sep-23 17:33N 54°35' E 012°29'10 9.7
2014-Sep-23 16:33N 54°29' E 012°16'10 9.7
2014-Sep-23 15:33N 54°21' E 012°08'9 9.1
2014-Sep-23 14:33N 54°12' E 012°05'3 3.2
2014-Sep-23 13:29N 54°09' E 012°07'0 0.0
2014-Sep-23 12:11N 54°09' E 012°07'0 0.0
2014-Sep-23 11:23N 54°09' E 012°07'0 0.0
2014-Sep-23 10:32N 54°09' E 012°07'0 0.0
2014-Sep-23 09:29N 54°09' E 012°07'0 0.0
2014-Sep-23 08:29N 54°09' E 012°07'0 0.0
2014-Sep-23 07:20N 54°09' E 012°07'0 0.0
2014-Sep-23 06:29N 54°09' E 012°07'0 0.0
2014-Sep-23 05:26N 54°09' E 012°07'0 0.0
2014-Sep-23 04:26N 54°09' E 012°07'0 0.0
2014-Sep-23 03:26N 54°09' E 012°07'0 0.0
2014-Sep-23 02:26N 54°09' E 012°07'0 0.0
2014-Sep-23 01:25N 54°09' E 012°07'0 0.0
2014-Sep-23 00:25N 54°09' E 012°07'0 0.0
2014-Sep-22 23:28N 54°09' E 012°07'0 0.0
2014-Sep-22 22:28N 54°09' E 012°07'0 0.0
2014-Sep-22 21:25N 54°09' E 012°07'0 0.0
2014-Sep-22 19:31N 54°09' E 012°07'0 0.0
2014-Sep-22 18:31N 54°09' E 012°07'0 0.0
2014-Sep-22 17:31N 54°09' E 012°07'0 0.0
2014-Sep-22 16:31N 54°09' E 012°07'0 0.0
2014-Sep-22 15:31N 54°09' E 012°07'0 0.0
2014-Sep-22 10:10N 54°09' E 012°07'0 0.0
2014-Sep-22 09:31N 54°09' E 012°07'0 0.0
2014-Sep-22 08:31N 54°09' E 012°07'0 0.0
2014-Sep-22 07:31N 54°09' E 012°07'0 0.0
2014-Sep-22 06:31N 54°09' E 012°07'0 0.0
2014-Sep-22 05:28N 54°09' E 012°07'0 0.0
2014-Sep-22 04:31N 54°09' E 012°07'0 0.0
2014-Sep-22 03:31N 54°09' E 012°07'0 0.0
2014-Sep-22 02:31N 54°09' E 012°07'0 0.0
2014-Sep-22 01:31N 54°09' E 012°07'0 0.0
2014-Sep-22 00:28N 54°09' E 012°07'0 0.0
2014-Sep-21 23:31N 54°09' E 012°07'0 0.0
2014-Sep-21 22:31N 54°09' E 012°07'0 0.0
2014-Sep-21 21:28N 54°09' E 012°07'0 0.0
2014-Sep-21 20:31N 54°09' E 012°07'0 0.0
2014-Sep-21 19:31N 54°09' E 012°07'0 0.0
2014-Sep-21 18:25N 54°09' E 012°07'0 0.0
2014-Sep-21 17:31N 54°09' E 012°07'0 0.0
2014-Sep-21 16:28N 54°09' E 012°07'0 0.0
2014-Sep-21 15:31N 54°09' E 012°07'0 0.0
2014-Sep-21 14:31N 54°09' E 012°07'0 0.0
2014-Sep-21 13:13N 54°09' E 012°07'0 0.0
2014-Sep-21 12:16N 54°09' E 012°07'0 0.0
2014-Sep-21 11:33N 54°09' E 012°07'0 0.0
2014-Sep-21 10:30N 54°09' E 012°07'0 0.0
2014-Sep-21 09:33N 54°09' E 012°07'0 0.0
2014-Sep-21 08:30N 54°09' E 012°07'0 0.0
2014-Sep-21 07:22N 54°09' E 012°07'0 0.0
2014-Sep-21 06:15N 54°09' E 012°07'0 0.0
2014-Sep-21 05:33N 54°09' E 012°07'0 0.0
2014-Sep-21 04:30N 54°09' E 012°07'0 0.0
2014-Sep-21 03:33N 54°09' E 012°07'0 0.0
2014-Sep-21 01:30N 54°09' E 012°07'0 0.0
2014-Sep-21 00:30N 54°09' E 012°07'0 0.0
2014-Sep-20 23:33N 54°09' E 012°07'0 0.0
2014-Sep-20 22:30N 54°09' E 012°07'0 0.0
2014-Sep-20 21:33N 54°09' E 012°07'0 0.0
2014-Sep-20 20:33N 54°09' E 012°07'0 0.0
2014-Sep-20 19:33N 54°09' E 012°07'0 0.0
2014-Sep-20 18:30N 54°09' E 012°07'0 0.0
2014-Sep-20 17:30N 54°09' E 012°07'0 0.0
2014-Sep-20 16:30N 54°09' E 012°07'1 0.6
2014-Sep-20 15:33N 54°09' E 012°06'7 7.2
2014-Sep-20 14:33N 54°16' E 012°02'9 9.4
2014-Sep-20 13:33N 54°25' E 012°08'7 6.9
2014-Sep-20 12:33N 54°31' E 012°12'9 8.6
2014-Sep-20 11:33N 54°38' E 012°20'9 9.0
2014-Sep-20 10:33N 54°43' E 012°33'9 8.9
2014-Sep-20 09:33N 54°48' E 012°46'12 8.7
2014-Sep-20 08:11N 54°52' E 013°06'6 8.9
2014-Sep-20 07:33N 54°54' E 013°15'9 8.8
2014-Sep-20 06:33N 54°57' E 013°29'9 8.8
2014-Sep-20 05:33N 55°00' E 013°43'9 9.0
2014-Sep-20 04:33N 55°04' E 013°58'9 8.8
2014-Sep-20 03:33N 55°09' E 014°10'9 8.9
2014-Sep-20 02:33N 55°16' E 014°20'9 9.3
2014-Sep-20 01:34N 55°23' E 014°30'9 8.9
2014-Sep-20 00:33N 55°27' E 014°44'9 8.8
2014-Sep-19 23:33N 55°29' E 014°59'9 8.9
2014-Sep-19 22:33N 55°32' E 015°14'9 8.9
2014-Sep-19 21:33N 55°35' E 015°29'9 8.9
2014-Sep-19 20:33N 55°38' E 015°44'9 8.8
2014-Sep-19 19:32N 55°41' E 015°59'9 8.9
2014-Sep-19 18:33N 55°43' E 016°14'21 8.7
2014-Sep-19 16:10N 55°49' E 016°49'6 8.8
2014-Sep-19 15:32N 55°51' E 016°59'9 8.7
2014-Sep-19 14:31N 55°53' E 017°14'21 8.8
2014-Sep-19 12:08N 55°59' E 017°49'6 8.8
2014-Sep-19 11:27N 56°01' E 017°60'8 8.8
2014-Sep-19 10:33N 56°03' E 018°13'9 8.7
2014-Sep-19 09:33N 56°06' E 018°28'9 8.7
2014-Sep-19 08:33N 56°08' E 018°43'9 8.7
2014-Sep-19 07:33N 56°11' E 018°58'  
Track history (hours):
 
Tides and Currents Weather Stations Pressure Air Temp Water Temp Dewpoint Dewpoint Depression Visibility Wind Speed Wind Dir Waves Ship Positions

Listerhav

Last reported at 2014-Sep-29 07:33 UTC. Time now 2014-Oct-01 00:07 UTC.
Position N 56°18' E 012°04'.

Length 88 m; draft 5.8 m.

Type: Cargo ship. MMSI: 236591000.

Date/timePositionNaut miles runAvg speedWind from/ knotsBaromVisibWave heightAir tempDewpointWater temp
2014-Sep-29 07:33N 56°18' E 012°04'8 8.4
2014-Sep-29 06:33N 56°14' E 012°16'8 8.1
2014-Sep-29 05:33N 56°09' E 012°29'8 7.9
2014-Sep-29 04:33N 56°04' E 012°39'7 7.4
2014-Sep-29 03:33N 55°57' E 012°43'8 7.9
2014-Sep-29 02:33N 55°49' E 012°43'8 8.3
2014-Sep-29 01:34N 55°41' E 012°41'8 7.6
2014-Sep-29 00:33N 55°33' E 012°42'8 8.0
2014-Sep-28 23:34N 55°25' E 012°42'8 7.6
2014-Sep-28 22:31N 55°18' E 012°46'8 8.5
2014-Sep-28 21:33N 55°17' E 013°01'9 8.2
2014-Sep-28 20:30N 55°15' E 013°16'8 8.3
2014-Sep-28 19:33N 55°15' E 013°30'8 8.3
2014-Sep-28 18:33N 55°14' E 013°44'8 8.2
2014-Sep-28 17:33N 55°14' E 013°59'8 8.1
2014-Sep-28 16:33N 55°14' E 014°13'8 7.6
2014-Sep-28 15:33N 55°19' E 014°23'8 8.3
2014-Sep-28 14:33N 55°25' E 014°32'8 8.0
2014-Sep-28 13:33N 55°29' E 014°44'8 8.1
2014-Sep-28 12:33N 55°33' E 014°57'8 7.9
2014-Sep-28 11:32N 55°38' E 015°09'18 8.2
2014-Sep-28 09:18N 55°47' E 015°37'7 8.2
2014-Sep-28 08:26N 55°50' E 015°48'  
2014-Sep-24 05:26N 55°34' E 015°14'8 9.6
2014-Sep-24 04:33N 55°30' E 015°00'10 9.7
2014-Sep-24 03:33N 55°25' E 014°46'10 9.6
2014-Sep-24 02:34N 55°19' E 014°33'9 9.5
2014-Sep-24 01:34N 55°11' E 014°22'9 9.4
2014-Sep-24 00:33N 55°04' E 014°12'9 9.2
2014-Sep-23 23:33N 54°60' E 013°58'9 9.5
2014-Sep-23 22:34N 54°57' E 013°42'9 9.3
2014-Sep-23 21:33N 54°53' E 013°27'10 9.4
2014-Sep-23 20:30N 54°50' E 013°11'10 9.4
2014-Sep-23 19:28N 54°45' E 012°56'9 9.5
2014-Sep-23 18:33N 54°40' E 012°44'10 9.7
2014-Sep-23 17:33N 54°35' E 012°29'10 9.7
2014-Sep-23 16:33N 54°29' E 012°16'10 9.7
2014-Sep-23 15:33N 54°21' E 012°08'9 9.1
2014-Sep-23 14:33N 54°12' E 012°05'3 3.2
2014-Sep-23 13:29N 54°09' E 012°07'0 0.0
2014-Sep-23 12:11N 54°09' E 012°07'0 0.0
2014-Sep-23 11:23N 54°09' E 012°07'0 0.0
2014-Sep-23 10:32N 54°09' E 012°07'0 0.0
2014-Sep-23 09:29N 54°09' E 012°07'0 0.0
2014-Sep-23 08:29N 54°09' E 012°07'0 0.0
2014-Sep-23 07:20N 54°09' E 012°07'0 0.0
2014-Sep-23 06:29N 54°09' E 012°07'0 0.0
2014-Sep-23 05:26N 54°09' E 012°07'0 0.0
2014-Sep-23 04:26N 54°09' E 012°07'0 0.0
2014-Sep-23 03:26N 54°09' E 012°07'0 0.0
2014-Sep-23 02:26N 54°09' E 012°07'0 0.0
2014-Sep-23 01:25N 54°09' E 012°07'0 0.0
2014-Sep-23 00:25N 54°09' E 012°07'0 0.0
2014-Sep-22 23:28N 54°09' E 012°07'0 0.0
2014-Sep-22 22:28N 54°09' E 012°07'0 0.0
2014-Sep-22 21:25N 54°09' E 012°07'0 0.0
2014-Sep-22 19:31N 54°09' E 012°07'0 0.0
2014-Sep-22 18:31N 54°09' E 012°07'0 0.0
2014-Sep-22 17:31N 54°09' E 012°07'0 0.0
2014-Sep-22 16:31N 54°09' E 012°07'0 0.0
2014-Sep-22 15:31N 54°09' E 012°07'0 0.0
2014-Sep-22 10:10N 54°09' E 012°07'0 0.0
2014-Sep-22 09:31N 54°09' E 012°07'0 0.0
2014-Sep-22 08:31N 54°09' E 012°07'0 0.0
2014-Sep-22 07:31N 54°09' E 012°07'0 0.0
2014-Sep-22 06:31N 54°09' E 012°07'0 0.0
2014-Sep-22 05:28N 54°09' E 012°07'0 0.0
2014-Sep-22 04:31N 54°09' E 012°07'0 0.0
2014-Sep-22 03:31N 54°09' E 012°07'0 0.0
2014-Sep-22 02:31N 54°09' E 012°07'0 0.0
2014-Sep-22 01:31N 54°09' E 012°07'0 0.0
2014-Sep-22 00:28N 54°09' E 012°07'0 0.0
2014-Sep-21 23:31N 54°09' E 012°07'0 0.0
2014-Sep-21 22:31N 54°09' E 012°07'0 0.0
2014-Sep-21 21:28N 54°09' E 012°07'0 0.0
2014-Sep-21 20:31N 54°09' E 012°07'0 0.0
2014-Sep-21 19:31N 54°09' E 012°07'0 0.0
2014-Sep-21 18:25N 54°09' E 012°07'0 0.0
2014-Sep-21 17:31N 54°09' E 012°07'0 0.0
2014-Sep-21 16:28N 54°09' E 012°07'0 0.0
2014-Sep-21 15:31N 54°09' E 012°07'0 0.0
2014-Sep-21 14:31N 54°09' E 012°07'0 0.0
2014-Sep-21 13:13N 54°09' E 012°07'0 0.0
2014-Sep-21 12:16N 54°09' E 012°07'0 0.0
2014-Sep-21 11:33N 54°09' E 012°07'0 0.0
2014-Sep-21 10:30N 54°09' E 012°07'0 0.0
2014-Sep-21 09:33N 54°09' E 012°07'0 0.0
2014-Sep-21 08:30N 54°09' E 012°07'0 0.0
2014-Sep-21 07:22N 54°09' E 012°07'0 0.0
2014-Sep-21 06:15N 54°09' E 012°07'0 0.0
2014-Sep-21 05:33N 54°09' E 012°07'0 0.0
2014-Sep-21 04:30N 54°09' E 012°07'0 0.0
2014-Sep-21 03:33N 54°09' E 012°07'0 0.0
2014-Sep-21 01:30N 54°09' E 012°07'0 0.0
2014-Sep-21 00:30N 54°09' E 012°07'0 0.0
2014-Sep-20 23:33N 54°09' E 012°07'0 0.0
2014-Sep-20 22:30N 54°09' E 012°07'0 0.0
2014-Sep-20 21:33N 54°09' E 012°07'0 0.0
2014-Sep-20 20:33N 54°09' E 012°07'0 0.0
2014-Sep-20 19:33N 54°09' E 012°07'0 0.0
2014-Sep-20 18:30N 54°09' E 012°07'0 0.0
2014-Sep-20 17:30N 54°09' E 012°07'0 0.0
2014-Sep-20 16:30N 54°09' E 012°07'1 0.6
2014-Sep-20 15:33N 54°09' E 012°06'7 7.2
2014-Sep-20 14:33N 54°16' E 012°02'9 9.4
2014-Sep-20 13:33N 54°25' E 012°08'7 6.9
2014-Sep-20 12:33N 54°31' E 012°12'9 8.6
2014-Sep-20 11:33N 54°38' E 012°20'9 9.0
2014-Sep-20 10:33N 54°43' E 012°33'9 8.9
2014-Sep-20 09:33N 54°48' E 012°46'12 8.7
2014-Sep-20 08:11N 54°52' E 013°06'6 8.9
2014-Sep-20 07:33N 54°54' E 013°15'9 8.8
2014-Sep-20 06:33N 54°57' E 013°29'9 8.8
2014-Sep-20 05:33N 55°00' E 013°43'9 9.0
2014-Sep-20 04:33N 55°04' E 013°58'9 8.8
2014-Sep-20 03:33N 55°09' E 014°10'9 8.9
2014-Sep-20 02:33N 55°16' E 014°20'9 9.3
2014-Sep-20 01:34N 55°23' E 014°30'9 8.9
2014-Sep-20 00:33N 55°27' E 014°44'9 8.8
2014-Sep-19 23:33N 55°29' E 014°59'9 8.9
2014-Sep-19 22:33N 55°32' E 015°14'9 8.9
2014-Sep-19 21:33N 55°35' E 015°29'9 8.9
2014-Sep-19 20:33N 55°38' E 015°44'9 8.8
2014-Sep-19 19:32N 55°41' E 015°59'9 8.9
2014-Sep-19 18:33N 55°43' E 016°14'21 8.7
2014-Sep-19 16:10N 55°49' E 016°49'6 8.8
2014-Sep-19 15:32N 55°51' E 016°59'9 8.7
2014-Sep-19 14:31N 55°53' E 017°14'21 8.8
2014-Sep-19 12:08N 55°59' E 017°49'6 8.8
2014-Sep-19 11:27N 56°01' E 017°60'8 8.8
2014-Sep-19 10:33N 56°03' E 018°13'9 8.7
2014-Sep-19 09:33N 56°06' E 018°28'9 8.7
2014-Sep-19 08:33N 56°08' E 018°43'9 8.7
2014-Sep-19 07:33N 56°11' E 018°58'  

Dump ship's entire track history